createdAt,value
2022-12-23T00:01:23.153Z,77027.84
2022-12-23T00:03:50.185Z,77027.84
2022-12-23T00:06:18.245Z,77017.91
2022-12-23T00:08:46.531Z,77021.88
2022-12-23T00:11:18.164Z,77047.72
2022-12-23T00:14:03.706Z,77033.81
2022-12-23T00:16:30.248Z,77019.88
2022-12-23T00:18:56.875Z,77007.97
2022-12-23T00:21:23.541Z,77013.94
2022-12-23T00:23:51.364Z,77015.91
2022-12-23T00:26:26.172Z,77015.91
2022-12-23T00:28:53.053Z,77021.88
2022-12-23T00:31:19.940Z,76996.03
2022-12-23T00:33:48.280Z,77007.97
2022-12-23T00:36:19.291Z,77007.97
2022-12-23T00:39:05.065Z,77009.94
2022-12-23T00:41:50.124Z,77013.94
2022-12-23T00:44:16.560Z,77005.97
2022-12-23T00:46:43.180Z,77005.97
2022-12-23T00:49:31.413Z,77004.00
2022-12-23T00:51:58.390Z,77002.00
2022-12-23T00:54:24.847Z,76958.28
2022-12-23T00:56:52.307Z,76960.25
2022-12-23T00:59:18.863Z,76958.28
2022-12-23T01:02:04.160Z,76936.41
2022-12-23T01:04:49.311Z,76938.41
2022-12-23T01:07:15.742Z,76904.63
2022-12-23T01:09:42.192Z,76916.53
2022-12-23T01:12:08.608Z,76930.47
2022-12-23T01:14:35.214Z,76900.66
2022-12-23T01:17:01.671Z,76896.66
2022-12-23T01:19:28.612Z,76924.50
2022-12-23T01:21:55.207Z,76938.41
2022-12-23T01:24:22.252Z,76942.38
2022-12-23T01:26:48.790Z,76952.31
2022-12-23T01:29:15.176Z,76954.31
2022-12-23T01:31:41.689Z,76960.25
2022-12-23T01:34:08.267Z,76966.22
2022-12-23T01:36:34.663Z,76946.34
2022-12-23T01:39:01.207Z,76924.50
2022-12-23T01:41:48.780Z,76938.41
2022-12-23T01:44:52.192Z,76930.47
2022-12-23T01:47:43.747Z,76908.59
2022-12-23T01:50:27.932Z,76906.59
2022-12-23T01:53:07.290Z,76920.53
2022-12-23T01:55:49.583Z,76914.56
2022-12-23T01:58:34.914Z,76884.75
2022-12-23T02:01:20.542Z,76878.78
2022-12-23T02:03:49.199Z,76874.81
2022-12-23T02:06:41.026Z,76860.91
2022-12-23T02:09:19.909Z,76864.88
2022-12-23T02:12:11.050Z,76858.91
2022-12-23T02:15:21.065Z,76856.94
2022-12-23T02:18:06.226Z,76866.84
2022-12-23T02:21:08.687Z,76872.81
2022-12-23T02:24:05.058Z,76886.72
2022-12-23T02:26:59.097Z,76874.81
2022-12-23T02:29:49.382Z,76864.88
2022-12-23T02:32:20.438Z,76866.84
2022-12-23T02:34:55.740Z,76860.91
2022-12-23T02:37:36.222Z,76866.84
2022-12-23T02:40:55.385Z,76870.84
2022-12-23T02:43:44.745Z,76868.84
2022-12-23T02:46:34.228Z,76878.78
2022-12-23T02:49:10.871Z,76880.78
2022-12-23T02:51:42.434Z,76864.88
2022-12-23T02:54:13.581Z,76886.72
2022-12-23T02:56:43.309Z,76868.84
2022-12-23T02:59:15.295Z,76866.84
2022-12-23T03:01:43.461Z,76868.84
2022-12-23T03:04:09.978Z,76864.88
2022-12-23T03:06:42.120Z,76835.06
2022-12-23T03:09:08.933Z,76843.00
2022-12-23T03:11:48.477Z,76843.00
2022-12-23T03:14:17.758Z,76864.88
2022-12-23T03:17:20.831Z,76841.03
2022-12-23T03:20:00.198Z,76848.97
2022-12-23T03:22:35.703Z,76856.94
2022-12-23T03:25:26.062Z,76860.91
2022-12-23T03:28:13.429Z,76856.94
2022-12-23T03:30:43.133Z,76856.94
2022-12-23T03:33:29.843Z,76856.94
2022-12-23T03:36:01.068Z,76860.91
2022-12-23T03:38:28.777Z,76850.97
2022-12-23T03:41:00.614Z,76843.00
2022-12-23T03:43:30.696Z,76841.03
2022-12-23T03:46:02.638Z,76841.03
2022-12-23T03:48:38.642Z,76847.00
2022-12-23T03:51:11.592Z,76825.13
2022-12-23T03:53:45.327Z,76833.06
2022-12-23T03:56:18.978Z,76827.13
2022-12-23T03:59:14.231Z,76823.13
2022-12-23T04:02:28.332Z,76839.03
2022-12-23T04:05:12.705Z,76831.09
2022-12-23T04:07:51.602Z,76821.16
2022-12-23T04:10:21.159Z,76827.13
2022-12-23T04:12:48.597Z,76825.13
2022-12-23T04:15:20.146Z,76821.16
2022-12-23T04:17:46.529Z,76823.13
2022-12-23T04:20:12.962Z,76815.19
2022-12-23T04:22:39.611Z,76811.22
2022-12-23T04:25:06.512Z,76803.25
2022-12-23T04:27:32.958Z,76799.28
2022-12-23T04:29:59.319Z,76803.25
2022-12-23T04:32:26.797Z,76795.31
2022-12-23T04:34:53.199Z,76791.34
2022-12-23T04:37:19.558Z,76779.41
2022-12-23T04:39:45.926Z,76787.38
2022-12-23T04:42:12.371Z,76777.44
2022-12-23T04:44:38.735Z,76775.44
2022-12-23T04:47:05.359Z,76767.50
2022-12-23T04:49:31.810Z,76763.53
2022-12-23T04:51:58.366Z,76755.56
2022-12-23T04:54:24.738Z,76753.59
2022-12-23T04:56:51.161Z,76761.53
2022-12-23T04:59:17.629Z,76761.53
2022-12-23T05:01:44.150Z,76755.56
2022-12-23T05:04:11.169Z,76755.56
2022-12-23T05:06:38.078Z,76753.59
2022-12-23T05:09:05.190Z,76753.59
2022-12-23T05:11:34.068Z,76735.69
2022-12-23T05:14:03.567Z,76747.63
2022-12-23T05:16:31.586Z,76745.63
2022-12-23T05:18:58.263Z,76741.66
2022-12-23T05:21:24.672Z,76729.75
2022-12-23T05:23:51.486Z,76713.84
2022-12-23T05:26:18.125Z,76735.69
2022-12-23T05:28:45.617Z,76735.69
2022-12-23T05:31:12.893Z,76727.75
2022-12-23T05:33:39.680Z,76721.78
2022-12-23T05:36:07.124Z,76715.81
2022-12-23T05:38:33.871Z,76703.91
2022-12-23T05:41:00.336Z,76697.94
2022-12-23T05:43:26.831Z,76711.84
2022-12-23T05:45:53.251Z,76690.00
2022-12-23T05:48:19.756Z,76684.03
2022-12-23T05:50:49.811Z,76674.09
2022-12-23T05:53:16.341Z,76697.94
2022-12-23T05:55:42.722Z,76682.03
2022-12-23T05:58:09.134Z,76703.91
2022-12-23T06:00:35.544Z,76695.94
2022-12-23T06:03:02.038Z,76690.00
2022-12-23T06:05:28.829Z,76686.00
2022-12-23T06:07:55.176Z,76672.09
2022-12-23T06:10:21.652Z,76664.16
2022-12-23T06:12:48.052Z,76662.16
2022-12-23T06:15:15.570Z,76674.09
2022-12-23T06:17:42.023Z,76668.13
2022-12-23T06:20:11.214Z,76646.28
2022-12-23T06:22:42.612Z,76654.22
2022-12-23T06:25:09.211Z,76652.22
2022-12-23T06:27:35.638Z,76644.28
2022-12-23T06:30:02.071Z,76662.16
2022-12-23T06:32:31.594Z,76674.09
2022-12-23T06:35:02.582Z,76654.22
2022-12-23T06:37:28.989Z,76644.28
2022-12-23T06:39:55.372Z,76652.22
2022-12-23T06:42:21.733Z,76638.31
2022-12-23T06:44:48.130Z,76640.31
2022-12-23T06:47:14.585Z,76630.38
2022-12-23T06:49:40.961Z,76638.31
2022-12-23T06:52:07.368Z,76638.31
2022-12-23T06:54:33.773Z,76628.38
2022-12-23T06:57:00.263Z,76638.31
2022-12-23T06:59:26.970Z,76642.28
2022-12-23T07:01:53.375Z,76632.34
2022-12-23T07:04:19.804Z,76650.25
2022-12-23T07:06:46.198Z,76654.22
2022-12-23T07:09:12.651Z,76642.28
2022-12-23T07:11:39.033Z,76640.31
2022-12-23T07:14:05.435Z,76632.34
2022-12-23T07:16:33.180Z,76622.44
2022-12-23T07:19:00.047Z,76636.34
2022-12-23T07:21:29.486Z,76650.25
2022-12-23T07:23:56.613Z,76642.28
2022-12-23T07:26:22.983Z,76638.31
2022-12-23T07:28:49.511Z,76650.25
2022-12-23T07:31:16.117Z,76636.34
2022-12-23T07:33:42.888Z,76652.22
2022-12-23T07:36:09.813Z,76658.19
2022-12-23T07:38:36.591Z,76640.31
2022-12-23T07:41:03.123Z,76630.38
2022-12-23T07:43:29.586Z,76638.31
2022-12-23T07:46:00.455Z,76630.38
2022-12-23T07:48:27.539Z,76638.31
2022-12-23T07:51:01.229Z,76634.34
2022-12-23T07:53:27.875Z,76642.28
2022-12-23T07:55:56.593Z,76612.50
2022-12-23T07:58:23.999Z,76622.44
2022-12-23T08:00:50.564Z,76624.41
2022-12-23T08:03:17.146Z,76626.41
2022-12-23T08:05:43.644Z,76620.44
2022-12-23T08:08:10.032Z,76614.47
2022-12-23T08:10:36.626Z,76614.47
2022-12-23T08:13:04.624Z,76616.47
2022-12-23T08:15:31.009Z,76624.41
2022-12-23T08:17:57.434Z,76640.31
2022-12-23T08:20:23.912Z,76634.34
2022-12-23T08:22:50.296Z,76626.41
2022-12-23T08:25:16.660Z,76628.38
2022-12-23T08:27:43.043Z,76634.34
2022-12-23T08:30:09.989Z,76640.31
2022-12-23T08:32:36.392Z,76648.25
2022-12-23T08:35:02.793Z,76644.28
2022-12-23T08:37:29.433Z,76642.28
2022-12-23T08:39:55.819Z,76648.25
2022-12-23T08:42:22.217Z,76644.28
2022-12-23T08:44:48.629Z,76646.28
2022-12-23T08:47:15.046Z,76666.16
2022-12-23T08:49:41.555Z,76654.22
2022-12-23T08:52:07.944Z,76646.28
2022-12-23T08:54:34.395Z,76656.22
2022-12-23T08:57:00.910Z,76648.25
2022-12-23T08:59:27.287Z,76662.16
2022-12-23T09:01:53.812Z,76660.19
2022-12-23T09:04:20.340Z,76650.25
2022-12-23T09:06:46.750Z,76646.28
2022-12-23T09:09:15.634Z,76644.28
2022-12-23T09:11:43.005Z,76656.22
2022-12-23T09:14:10.767Z,76670.13
2022-12-23T09:16:37.886Z,76664.16
2022-12-23T09:19:04.775Z,76664.16
2022-12-23T09:21:31.439Z,76666.16
2022-12-23T09:23:57.816Z,76658.19
2022-12-23T09:26:27.536Z,76672.09
2022-12-23T09:28:56.043Z,76676.06
2022-12-23T09:31:24.084Z,76686.00
2022-12-23T09:33:52.925Z,76691.97
2022-12-23T09:36:19.913Z,76678.06
2022-12-23T09:38:46.392Z,76699.94
2022-12-23T09:41:29.517Z,76703.91
2022-12-23T09:44:18.328Z,76707.88
2022-12-23T09:46:52.410Z,76703.91
2022-12-23T09:49:20.931Z,76715.81
2022-12-23T09:51:49.261Z,76725.75
2022-12-23T09:54:20.898Z,76721.78
2022-12-23T09:57:25.246Z,76729.75
2022-12-23T09:59:51.808Z,76721.78
2022-12-23T10:02:30.358Z,76739.66
2022-12-23T10:05:24.243Z,76741.66
2022-12-23T10:07:58.906Z,76731.72
2022-12-23T10:10:40.923Z,76723.78
2022-12-23T10:13:18.164Z,76725.75
2022-12-23T10:15:47.988Z,76719.81
2022-12-23T10:18:44.993Z,76715.81
2022-12-23T10:21:19.075Z,76735.69
2022-12-23T10:23:50.686Z,76757.56
2022-12-23T10:26:31.169Z,76755.56
2022-12-23T10:29:19.986Z,76761.53
2022-12-23T10:32:09.748Z,76751.59
2022-12-23T10:34:51.037Z,76771.47
2022-12-23T10:37:38.728Z,76771.47
2022-12-23T10:40:25.817Z,76799.28
2022-12-23T10:43:12.273Z,76799.28
2022-12-23T10:45:51.949Z,76811.22
2022-12-23T10:48:36.723Z,76791.34
2022-12-23T10:51:08.474Z,76793.34
2022-12-23T10:53:42.029Z,76795.31
2022-12-23T10:56:08.785Z,76805.25
2022-12-23T10:58:40.660Z,76797.31
2022-12-23T11:01:16.117Z,76779.41
2022-12-23T11:04:07.338Z,76769.47
2022-12-23T11:06:39.959Z,76769.47
2022-12-23T11:09:12.098Z,76765.50
2022-12-23T11:11:59.795Z,76753.59
2022-12-23T11:14:50.946Z,76755.56
2022-12-23T11:17:28.696Z,76749.59
2022-12-23T11:20:07.342Z,76737.69
2022-12-23T11:22:33.828Z,76737.69
2022-12-23T11:25:28.470Z,76727.75
2022-12-23T11:28:00.108Z,76749.59
2022-12-23T11:30:29.195Z,76737.69
2022-12-23T11:32:56.363Z,76739.66
2022-12-23T11:35:27.955Z,76757.56
2022-12-23T11:37:55.304Z,76749.59
2022-12-23T11:40:28.513Z,76781.41
2022-12-23T11:43:01.733Z,76769.47
2022-12-23T11:45:36.393Z,76771.47
2022-12-23T11:48:25.821Z,76771.47
2022-12-23T11:51:01.089Z,76767.50
2022-12-23T11:53:27.794Z,76779.41
2022-12-23T11:56:05.695Z,76785.38
2022-12-23T11:58:47.351Z,76793.34
2022-12-23T12:01:18.632Z,76815.19
2022-12-23T12:03:50.471Z,76807.25
2022-12-23T12:06:19.550Z,76821.16
2022-12-23T12:08:51.138Z,76829.09
2022-12-23T12:11:23.299Z,76843.00
2022-12-23T12:13:56.954Z,76829.09
2022-12-23T12:16:42.125Z,76845.00
2022-12-23T12:19:27.297Z,76845.00
2022-12-23T12:22:00.683Z,76825.13
2022-12-23T12:24:38.520Z,76819.16
2022-12-23T12:27:07.541Z,76825.13
2022-12-23T12:29:52.643Z,76807.25
2022-12-23T12:32:36.401Z,76827.13
2022-12-23T12:35:16.565Z,76809.22
2022-12-23T12:37:49.422Z,76793.34
2022-12-23T12:40:40.939Z,76785.38
2022-12-23T12:43:19.328Z,76801.28
2022-12-23T12:45:52.744Z,76799.28
2022-12-23T12:48:36.230Z,76789.34
2022-12-23T12:51:52.590Z,76785.38
2022-12-23T12:54:27.453Z,76789.34
2022-12-23T12:56:56.449Z,76789.34
2022-12-23T12:59:27.811Z,76785.38
2022-12-23T13:02:22.096Z,76775.44
2022-12-23T13:05:18.762Z,76795.31
2022-12-23T13:08:07.910Z,76791.34
2022-12-23T13:10:39.302Z,76787.38
2022-12-23T13:13:24.693Z,76803.25
2022-12-23T13:16:03.309Z,76799.28
2022-12-23T13:18:39.583Z,76821.16
2022-12-23T13:21:13.317Z,76803.25
2022-12-23T13:23:53.410Z,76823.13
2022-12-23T13:26:33.361Z,76827.13
2022-12-23T13:29:37.638Z,76837.06
2022-12-23T13:32:21.929Z,76811.22
2022-12-23T13:35:01.987Z,76809.22
2022-12-23T13:38:04.145Z,76805.25
2022-12-23T13:40:57.428Z,76801.28
2022-12-23T13:43:25.944Z,76795.31
2022-12-23T13:45:54.689Z,76771.47
2022-12-23T13:48:38.124Z,76759.53
2022-12-23T13:51:19.730Z,76753.59
2022-12-23T13:54:14.620Z,76753.59
2022-12-23T13:56:55.650Z,76773.47
2022-12-23T13:59:22.097Z,76809.22
2022-12-23T14:01:52.413Z,76811.22
2022-12-23T14:04:35.278Z,76795.31
2022-12-23T14:07:18.980Z,76807.25
2022-12-23T14:09:58.498Z,76809.22
2022-12-23T14:12:37.170Z,76825.13
2022-12-23T14:15:24.335Z,76803.25
2022-12-23T14:18:15.593Z,76819.16
2022-12-23T14:20:56.669Z,76825.13
2022-12-23T14:23:45.617Z,76801.28
2022-12-23T14:26:39.305Z,76815.19
2022-12-23T14:29:33.626Z,76817.19
2022-12-23T14:32:00.291Z,76823.13
2022-12-23T14:34:32.012Z,76839.03
2022-12-23T14:37:20.445Z,76860.91
2022-12-23T14:39:48.054Z,76874.81
2022-12-23T14:42:35.771Z,76890.72
2022-12-23T14:45:41.634Z,76906.59
2022-12-23T14:48:36.087Z,76894.69
2022-12-23T14:51:22.995Z,76888.72
2022-12-23T14:53:52.478Z,76884.75
2022-12-23T14:56:18.803Z,76862.88
2022-12-23T14:58:51.529Z,76872.81
2022-12-23T15:01:38.343Z,76882.75
2022-12-23T15:04:13.861Z,76894.69
2022-12-23T15:06:42.657Z,76914.56
2022-12-23T15:09:19.946Z,76914.56
2022-12-23T15:11:47.012Z,76910.59
2022-12-23T15:14:25.236Z,76916.53
2022-12-23T15:16:51.711Z,76926.47
2022-12-23T15:19:22.238Z,76884.75
2022-12-23T15:21:56.518Z,76860.91
2022-12-23T15:24:26.955Z,76870.84
2022-12-23T15:27:24.614Z,76868.84
2022-12-23T15:29:45.764Z,76914.56
2022-12-23T15:32:12.173Z,76934.44
2022-12-23T15:34:38.640Z,76930.47
2022-12-23T15:37:15.911Z,76936.41
2022-12-23T15:39:45.000Z,76950.31
2022-12-23T15:42:31.129Z,76928.47
2022-12-23T15:44:58.509Z,76916.53
2022-12-23T15:47:38.630Z,76906.59
2022-12-23T15:50:15.397Z,76910.59
2022-12-23T15:52:44.533Z,76952.31
2022-12-23T15:55:14.987Z,76984.13
2022-12-23T15:57:49.728Z,77002.00
2022-12-23T16:00:22.934Z,77017.91
2022-12-23T16:03:00.946Z,77023.88
2022-12-23T16:05:36.112Z,77041.75
2022-12-23T16:08:29.236Z,77031.81
2022-12-23T16:11:16.363Z,76994.06
2022-12-23T16:13:58.462Z,77015.91
2022-12-23T16:16:45.776Z,76966.22
2022-12-23T16:19:50.842Z,76970.19
2022-12-23T16:22:20.389Z,76976.16
2022-12-23T16:24:54.452Z,76988.09
2022-12-23T16:27:33.200Z,77002.00
2022-12-23T16:30:03.031Z,77013.94
2022-12-23T16:32:29.547Z,77005.97
2022-12-23T16:34:55.966Z,77000.00
2022-12-23T16:37:22.334Z,77004.00
2022-12-23T16:39:48.737Z,77015.91
2022-12-23T16:42:15.105Z,77004.00
2022-12-23T16:44:41.568Z,77013.94
2022-12-23T16:47:17.136Z,77017.91
2022-12-23T16:49:43.683Z,77015.91
2022-12-23T16:52:14.176Z,76994.06
2022-12-23T16:54:42.484Z,76996.03
2022-12-23T16:57:10.213Z,76996.03
2022-12-23T16:59:37.349Z,76968.22
2022-12-23T17:02:04.133Z,76940.41
2022-12-23T17:04:30.669Z,76956.28
2022-12-23T17:06:57.027Z,76938.41
2022-12-23T17:09:23.406Z,76958.28
2022-12-23T17:11:53.789Z,76960.25
2022-12-23T17:14:23.246Z,76980.13
2022-12-23T17:16:50.849Z,76974.19
2022-12-23T17:19:23.346Z,76940.41
2022-12-23T17:21:59.660Z,76928.47
2022-12-23T17:24:27.340Z,76898.66
2022-12-23T17:26:56.743Z,76910.59
2022-12-23T17:29:23.482Z,76902.63
2022-12-23T17:31:50.775Z,76904.63
2022-12-23T17:34:20.442Z,76902.63
2022-12-23T17:36:50.256Z,76908.59
2022-12-23T17:39:17.420Z,76892.69
2022-12-23T17:41:43.907Z,76904.63
2022-12-23T17:44:13.644Z,76908.59
2022-12-23T17:46:40.086Z,76926.47
2022-12-23T17:49:06.467Z,76932.44
2022-12-23T17:51:32.898Z,76934.44
2022-12-23T17:53:59.862Z,76948.34
2022-12-23T17:56:28.598Z,76944.38
2022-12-23T17:58:55.035Z,76942.38
2022-12-23T18:01:27.807Z,76908.59
2022-12-23T18:03:55.467Z,76906.59
2022-12-23T18:06:23.407Z,76926.47
2022-12-23T18:08:50.213Z,76932.44
2022-12-23T18:11:31.634Z,76922.50
2022-12-23T18:13:58.142Z,76922.50
2022-12-23T18:16:24.659Z,76900.66
2022-12-23T18:18:51.797Z,76906.59
2022-12-23T18:21:23.568Z,76920.53
2022-12-23T18:23:51.049Z,76910.59
2022-12-23T18:26:17.758Z,76918.53
2022-12-23T18:28:44.309Z,76920.53
2022-12-23T18:31:17.195Z,76928.47
2022-12-23T18:33:44.517Z,76922.50
2022-12-23T18:36:30.327Z,76922.50
2022-12-23T18:38:57.590Z,76930.47
2022-12-23T18:41:25.954Z,76932.44
2022-12-23T18:43:53.351Z,76926.47
2022-12-23T18:46:20.318Z,76934.44
2022-12-23T18:48:47.063Z,76932.44
2022-12-23T18:51:18.424Z,76932.44
2022-12-23T18:53:45.730Z,76936.41
2022-12-23T18:56:20.893Z,76944.38
2022-12-23T18:58:47.374Z,76938.41
2022-12-23T19:01:15.961Z,76946.34
2022-12-23T19:03:42.967Z,76930.47
2022-12-23T19:06:12.820Z,76924.50
2022-12-23T19:08:40.511Z,76916.53
2022-12-23T19:11:15.493Z,76928.47
2022-12-23T19:13:41.986Z,76928.47
2022-12-23T19:16:12.912Z,76910.59
2022-12-23T19:18:39.305Z,76916.53
2022-12-23T19:21:06.172Z,76918.53
2022-12-23T19:23:32.833Z,76928.47
2022-12-23T19:25:59.201Z,76924.50
2022-12-23T19:28:25.808Z,76904.63
2022-12-23T19:30:52.269Z,76914.56
2022-12-23T19:33:18.829Z,76916.53
2022-12-23T19:35:45.277Z,76900.66
2022-12-23T19:38:12.374Z,76912.56
2022-12-23T19:40:39.315Z,76908.59
2022-12-23T19:43:05.747Z,76912.56
2022-12-23T19:45:32.119Z,76906.59
2022-12-23T19:47:58.491Z,76888.72
2022-12-23T19:50:26.554Z,76884.75
2022-12-23T19:52:54.671Z,76884.75
2022-12-23T19:55:21.099Z,76890.72
2022-12-23T19:57:47.567Z,76896.66
2022-12-23T20:00:15.878Z,76904.63
2022-12-23T20:02:42.541Z,76904.63
2022-12-23T20:05:10.166Z,76900.66
2022-12-23T20:07:36.987Z,76902.63
2022-12-23T20:10:04.782Z,76884.75
2022-12-23T20:12:31.303Z,76880.78
2022-12-23T20:14:57.937Z,76870.84
2022-12-23T20:17:24.356Z,76868.84
2022-12-23T20:19:50.733Z,76852.94
2022-12-23T20:22:17.155Z,76843.00
2022-12-23T20:24:43.621Z,76847.00
2022-12-23T20:27:12.119Z,76839.03
2022-12-23T20:29:39.758Z,76860.91
2022-12-23T20:32:06.139Z,76852.94
2022-12-23T20:34:38.767Z,76858.91
2022-12-23T20:37:06.603Z,76858.91
2022-12-23T20:39:33.080Z,76852.94
2022-12-23T20:41:59.442Z,76848.97
2022-12-23T20:44:35.201Z,76843.00
2022-12-23T20:47:03.957Z,76848.97
2022-12-23T20:49:30.610Z,76843.00
2022-12-23T20:51:57.087Z,76841.03
2022-12-23T20:54:29.729Z,76833.06
2022-12-23T20:56:58.548Z,76837.06
2022-12-23T20:59:24.939Z,76827.13
2022-12-23T21:01:51.493Z,76847.00
2022-12-23T21:04:18.018Z,76841.03
2022-12-23T21:06:44.617Z,76825.13
2022-12-23T21:09:13.358Z,76833.06
2022-12-23T21:11:43.112Z,76858.91
2022-12-23T21:14:09.816Z,76854.94
2022-12-23T21:16:37.591Z,76852.94
2022-12-23T21:19:05.806Z,76856.94
2022-12-23T21:21:32.208Z,76862.88
2022-12-23T21:24:01.347Z,76860.91
2022-12-23T21:26:29.754Z,76866.84
2022-12-23T21:28:59.372Z,76833.06
2022-12-23T21:31:27.559Z,76825.13
2022-12-23T21:33:54.596Z,76817.19
2022-12-23T21:36:23.764Z,76825.13
2022-12-23T21:38:50.612Z,76831.09
2022-12-23T21:41:22.996Z,76829.09
2022-12-23T21:43:49.721Z,76835.06
2022-12-23T21:46:20.486Z,76837.06
2022-12-23T21:48:47.834Z,76815.19
2022-12-23T21:51:22.652Z,76821.16
2022-12-23T21:53:54.779Z,76829.09
2022-12-23T21:56:24.302Z,76825.13
2022-12-23T21:58:54.670Z,76819.16
2022-12-23T22:01:21.220Z,76821.16
2022-12-23T22:03:49.483Z,76817.19
2022-12-23T22:06:18.702Z,76809.22
2022-12-23T22:08:45.577Z,76827.13
2022-12-23T22:11:15.410Z,76817.19
2022-12-23T22:13:42.940Z,76821.16
2022-12-23T22:16:18.007Z,76815.19
2022-12-23T22:18:44.992Z,76825.13
2022-12-23T22:21:17.481Z,76813.19
2022-12-23T22:23:43.987Z,76817.19
2022-12-23T22:26:16.421Z,76809.22
2022-12-23T22:28:45.478Z,76815.19
2022-12-23T22:31:20.016Z,76815.19
2022-12-23T22:33:46.774Z,76821.16
2022-12-23T22:36:14.909Z,76817.19
2022-12-23T22:38:42.096Z,76821.16
2022-12-23T22:41:10.526Z,76817.19
2022-12-23T22:43:37.615Z,76823.13
2022-12-23T22:46:04.226Z,76817.19
2022-12-23T22:48:30.958Z,76819.16
2022-12-23T22:51:05.447Z,76821.16
2022-12-23T22:53:32.664Z,76817.19
2022-12-23T22:55:59.920Z,76817.19
2022-12-23T22:58:27.942Z,76807.25
2022-12-23T23:00:54.463Z,76831.09
2022-12-23T23:03:21.257Z,76825.13
2022-12-23T23:05:59.617Z,76817.19
2022-12-23T23:08:27.070Z,76825.13
2022-12-23T23:10:57.011Z,76841.03
2022-12-23T23:13:25.091Z,76839.03
2022-12-23T23:15:51.621Z,76831.09
2022-12-23T23:18:18.061Z,76827.13
2022-12-23T23:20:44.421Z,76821.16
2022-12-23T23:23:10.799Z,76827.13
2022-12-23T23:25:37.226Z,76831.09
2022-12-23T23:28:03.881Z,76837.06
2022-12-23T23:30:30.374Z,76825.13
2022-12-23T23:32:56.738Z,76839.03
2022-12-23T23:35:23.118Z,76841.03
2022-12-23T23:37:49.567Z,76827.13
2022-12-23T23:40:15.995Z,76837.06
2022-12-23T23:42:42.391Z,76841.03
2022-12-23T23:45:09.152Z,76841.03
2022-12-23T23:47:35.549Z,76843.00
2022-12-23T23:50:02.372Z,76841.03
2022-12-23T23:52:29.099Z,76856.94
2022-12-23T23:54:55.623Z,76852.94
2022-12-23T23:57:22.095Z,76845.00
2022-12-23T23:59:48.766Z,76845.00
